EXS8JK EGCC-LEMH
Flight info
| Callsign | EXS8JK |
|---|---|
| Flight time | N/A |
| Altitude | 37000 |
| Route | LISTO P18 TELBA L151 KIDLI UN859 SOPIL DCT BALAN DCT EVPOK DCT NARAK DCT GAI DCT LOMRA DCT ROCAN DCT GEANT DCT GIR DCT SALON DCT SULID N727 SARGO |
| Aircraft | A321/M-SDE3FGHIRWY/LB1 |
Departure
| Time | 2026-05-05 16:48 |
|---|---|
| Airport | Manchester Airport (EGCC) |
Arrival
| Time | N/A |
|---|---|
| Airport | Menorca Airport (LEMH) |
| Time | Latitude | Longitude | Altitude | Speed | Heading |
|---|---|---|---|---|---|
| 2026-05-05 16:23 | 53.36738 | -2.28458 | 255 ft | 0 kts | 135° |
| 2026-05-05 16:31 | 53.36740 | -2.28462 | 255 ft | 3 kts | 134° |
| 2026-05-05 16:31 | 53.36752 | -2.28491 | 255 ft | 3 kts | 121° |
| 2026-05-05 16:31 | 53.36763 | -2.28509 | 255 ft | 4 kts | 208° |
| 2026-05-05 16:32 | 53.36782 | -2.28482 | 255 ft | 4 kts | 224° |
| 2026-05-05 16:32 | 53.36788 | -2.28472 | 255 ft | 0 kts | 224° |
| 2026-05-05 16:36 | 53.36783 | -2.28480 | 255 ft | 4 kts | 224° |
| 2026-05-05 16:36 | 53.36763 | -2.28510 | 255 ft | 3 kts | 221° |
| 2026-05-05 16:36 | 53.36749 | -2.28530 | 255 ft | 2 kts | 219° |
| 2026-05-05 16:37 | 53.36741 | -2.28541 | 255 ft | 1 kts | 218° |
| 2026-05-05 16:37 | 53.36738 | -2.28544 | 255 ft | 2 kts | 218° |
| 2026-05-05 16:37 | 53.36708 | -2.28597 | 255 ft | 10 kts | 229° |
| 2026-05-05 16:37 | 53.36664 | -2.28674 | 255 ft | 9 kts | 229° |
| 2026-05-05 16:38 | 53.36639 | -2.28755 | 255 ft | 7 kts | 238° |
| 2026-05-05 16:38 | 53.36599 | -2.28781 | 255 ft | 6 kts | 168° |
| 2026-05-05 16:38 | 53.36580 | -2.28758 | 255 ft | 4 kts | 136° |
| 2026-05-05 16:38 | 53.36552 | -2.28712 | 255 ft | 8 kts | 135° |
| 2026-05-05 16:39 | 53.36473 | -2.28572 | 255 ft | 17 kts | 135° |
| 2026-05-05 16:39 | 53.36404 | -2.28488 | 255 ft | 18 kts | 161° |
| 2026-05-05 16:39 | 53.36301 | -2.28393 | 255 ft | 17 kts | 136° |
| 2026-05-05 16:39 | 53.36199 | -2.28222 | 255 ft | 15 kts | 135° |
| 2026-05-05 16:40 | 53.36151 | -2.28142 | 255 ft | 14 kts | 135° |
| 2026-05-05 16:40 | 53.36085 | -2.28037 | 255 ft | 12 kts | 139° |
| 2026-05-05 16:40 | 53.36023 | -2.27948 | 255 ft | 11 kts | 138° |
| 2026-05-05 16:40 | 53.35967 | -2.27871 | 255 ft | 10 kts | 147° |
| 2026-05-05 16:41 | 53.35946 | -2.27856 | 255 ft | 1 kts | 163° |
| 2026-05-05 16:41 | 53.35894 | -2.27850 | 255 ft | 15 kts | 184° |
| 2026-05-05 16:41 | 53.35757 | -2.27870 | 248 ft | 22 kts | 185° |
| 2026-05-05 16:41 | 53.35594 | -2.27901 | 239 ft | 25 kts | 186° |
| 2026-05-05 16:42 | 53.35429 | -2.27962 | 237 ft | 24 kts | 215° |
| 2026-05-05 16:42 | 53.35310 | -2.28158 | 234 ft | 24 kts | 225° |
| 2026-05-05 16:42 | 53.35196 | -2.28372 | 231 ft | 25 kts | 233° |
| 2026-05-05 16:42 | 53.35095 | -2.28585 | 229 ft | 18 kts | 230° |
| 2026-05-05 16:43 | 53.35013 | -2.28740 | 227 ft | 18 kts | 227° |
| 2026-05-05 16:43 | 53.34942 | -2.28868 | 226 ft | 2 kts | 226° |
| 2026-05-05 16:43 | 53.34930 | -2.28890 | 225 ft | 3 kts | 226° |
| 2026-05-05 16:43 | 53.34909 | -2.28925 | 224 ft | 6 kts | 226° |
| 2026-05-05 16:44 | 53.34872 | -2.28988 | 221 ft | 10 kts | 224° |
| 2026-05-05 16:44 | 53.34822 | -2.29084 | 223 ft | 12 kts | 230° |
| 2026-05-05 16:44 | 53.34766 | -2.29196 | 214 ft | 14 kts | 231° |
| 2026-05-05 16:44 | 53.34711 | -2.29294 | 219 ft | 8 kts | 219° |
| 2026-05-05 16:45 | 53.34683 | -2.29321 | 214 ft | 0 kts | 204° |
| 2026-05-05 16:46 | 53.34655 | -2.29335 | 211 ft | 9 kts | 189° |
| 2026-05-05 16:46 | 53.34565 | -2.29303 | 219 ft | 15 kts | 146° |
| 2026-05-05 16:46 | 53.34569 | -2.29163 | 218 ft | 11 kts | 51° |
| 2026-05-05 16:47 | 53.34573 | -2.29155 | 216 ft | 0 kts | 50° |
| 2026-05-05 16:47 | 53.34577 | -2.29147 | 219 ft | 5 kts | 50° |
| 2026-05-05 16:48 | 53.34727 | -2.28838 | 222 ft | 70 kts | 51° |
| 2026-05-05 16:48 | 53.35175 | -2.27914 | 238 ft | 132 kts | 51° |
| 2026-05-05 16:48 | 53.35865 | -2.26526 | 300 ft | 174 kts | 52° |
| 2026-05-05 16:48 | 53.36609 | -2.25044 | 1119 ft | 156 kts | 51° |
| 2026-05-05 16:49 | 53.37264 | -2.23603 | 1842 ft | 156 kts | 54° |
| 2026-05-05 16:49 | 53.37614 | -2.21805 | 2197 ft | 176 kts | 86° |
| 2026-05-05 16:49 | 53.37239 | -2.19739 | 2348 ft | 201 kts | 123° |
| 2026-05-05 16:49 | 53.36096 | -2.18187 | 2494 ft | 224 kts | 146° |
| 2026-05-05 16:50 | 53.34632 | -2.16983 | 2599 ft | 249 kts | 167° |
| 2026-05-05 16:50 | 53.32839 | -2.16951 | 3017 ft | 266 kts | 187° |
| 2026-05-05 16:50 | 53.30988 | -2.17292 | 3783 ft | 270 kts | 185° |
| 2026-05-05 16:50 | 53.29111 | -2.17602 | 4550 ft | 273 kts | 184° |
| 2026-05-05 16:51 | 53.27210 | -2.17900 | 5368 ft | 274 kts | 184° |
| 2026-05-05 16:51 | 53.25306 | -2.18192 | 6180 ft | 276 kts | 184° |
| 2026-05-05 16:51 | 53.23375 | -2.18489 | 6886 ft | 280 kts | 185° |
| 2026-05-05 16:51 | 53.21425 | -2.18791 | 7590 ft | 283 kts | 185° |
| 2026-05-05 16:52 | 53.19501 | -2.19092 | 8237 ft | 288 kts | 186° |
| 2026-05-05 16:52 | 53.17497 | -2.19410 | 8936 ft | 290 kts | 187° |
| 2026-05-05 16:52 | 53.15473 | -2.19729 | 9646 ft | 293 kts | 187° |
| 2026-05-05 16:52 | 53.13430 | -2.20048 | 10255 ft | 299 kts | 187° |
| 2026-05-05 16:53 | 53.11280 | -2.20387 | 10389 ft | 321 kts | 187° |
| 2026-05-05 16:53 | 53.08987 | -2.20751 | 10521 ft | 341 kts | 187° |
| 2026-05-05 16:53 | 53.06586 | -2.21130 | 10960 ft | 350 kts | 187° |
| 2026-05-05 16:53 | 53.04148 | -2.21507 | 11561 ft | 353 kts | 187° |
| 2026-05-05 16:54 | 53.01690 | -2.21886 | 12198 ft | 356 kts | 187° |
| 2026-05-05 16:54 | 52.99220 | -2.22268 | 12830 ft | 358 kts | 187° |
| 2026-05-05 16:54 | 52.96722 | -2.22658 | 13460 ft | 361 kts | 187° |
| 2026-05-05 16:54 | 52.94210 | -2.23050 | 14066 ft | 364 kts | 187° |
| 2026-05-05 16:55 | 52.91683 | -2.23439 | 14645 ft | 366 kts | 187° |
| 2026-05-05 16:55 | 52.89135 | -2.23830 | 15197 ft | 369 kts | 187° |
| 2026-05-05 16:55 | 52.86573 | -2.24242 | 15765 ft | 371 kts | 190° |
| 2026-05-05 16:55 | 52.84043 | -2.25093 | 16308 ft | 372 kts | 195° |
| 2026-05-05 16:56 | 52.81514 | -2.26074 | 16859 ft | 374 kts | 195° |
| 2026-05-05 16:56 | 52.79002 | -2.27043 | 17393 ft | 377 kts | 195° |
| 2026-05-05 16:56 | 52.76439 | -2.28025 | 17930 ft | 379 kts | 195° |
| 2026-05-05 16:56 | 52.73861 | -2.29016 | 18433 ft | 382 kts | 195° |
| 2026-05-05 16:57 | 52.71265 | -2.29987 | 18922 ft | 384 kts | 192° |
| 2026-05-05 16:57 | 52.68591 | -2.30338 | 19377 ft | 388 kts | 180° |
| 2026-05-05 16:57 | 52.65900 | -2.29752 | 19835 ft | 393 kts | 168° |
| 2026-05-05 16:57 | 52.63316 | -2.28216 | 20294 ft | 398 kts | 155° |
| 2026-05-05 16:58 | 52.60938 | -2.25840 | 20736 ft | 402 kts | 148° |
| 2026-05-05 16:58 | 52.58609 | -2.23270 | 21181 ft | 404 kts | 148° |
| 2026-05-05 16:58 | 52.56263 | -2.20696 | 21632 ft | 406 kts | 148° |
| 2026-05-05 16:58 | 52.53901 | -2.18115 | 22094 ft | 408 kts | 149° |
| 2026-05-05 16:59 | 52.51531 | -2.15536 | 22525 ft | 410 kts | 149° |
| 2026-05-05 16:59 | 52.49142 | -2.12942 | 22935 ft | 412 kts | 148° |
| 2026-05-05 16:59 | 52.46743 | -2.10339 | 23343 ft | 415 kts | 149° |
| 2026-05-05 16:59 | 52.44327 | -2.07723 | 23720 ft | 417 kts | 149° |
| 2026-05-05 17:00 | 52.41905 | -2.05097 | 24058 ft | 419 kts | 149° |
| 2026-05-05 17:00 | 52.39469 | -2.02454 | 24407 ft | 421 kts | 149° |
| 2026-05-05 17:00 | 52.37025 | -1.99807 | 24754 ft | 422 kts | 149° |
| 2026-05-05 17:00 | 52.34571 | -1.97155 | 25089 ft | 424 kts | 149° |
| 2026-05-05 17:01 | 52.32105 | -1.94494 | 25449 ft | 425 kts | 149° |
| 2026-05-05 17:01 | 52.29634 | -1.91838 | 25796 ft | 426 kts | 149° |
| 2026-05-05 17:01 | 52.27148 | -1.89172 | 26138 ft | 428 kts | 149° |
| 2026-05-05 17:01 | 52.24657 | -1.86501 | 26487 ft | 429 kts | 149° |
| 2026-05-05 17:02 | 52.22160 | -1.83824 | 26841 ft | 430 kts | 149° |
| 2026-05-05 17:02 | 52.19656 | -1.81141 | 27175 ft | 431 kts | 149° |
| 2026-05-05 17:02 | 52.17145 | -1.78449 | 27505 ft | 433 kts | 149° |
| 2026-05-05 17:02 | 52.14623 | -1.75750 | 27829 ft | 434 kts | 149° |
| 2026-05-05 17:03 | 52.12095 | -1.73057 | 28148 ft | 435 kts | 149° |
| 2026-05-05 17:03 | 52.09552 | -1.70354 | 28456 ft | 437 kts | 149° |
| 2026-05-05 17:03 | 52.07007 | -1.67648 | 28749 ft | 438 kts | 149° |
| 2026-05-05 17:03 | 52.04451 | -1.64932 | 29044 ft | 440 kts | 149° |
| 2026-05-05 17:04 | 52.01891 | -1.62206 | 29320 ft | 441 kts | 149° |
| 2026-05-05 17:04 | 51.99320 | -1.59468 | 29619 ft | 442 kts | 149° |
| 2026-05-05 17:04 | 51.96741 | -1.56732 | 29910 ft | 444 kts | 149° |
| 2026-05-05 17:04 | 51.94157 | -1.54001 | 30216 ft | 443 kts | 150° |
| 2026-05-05 17:05 | 51.91575 | -1.51283 | 30562 ft | 442 kts | 150° |
| 2026-05-05 17:05 | 51.89025 | -1.48606 | 30883 ft | 442 kts | 149° |
| 2026-05-05 17:05 | 51.86445 | -1.45900 | 31192 ft | 442 kts | 149° |
| 2026-05-05 17:05 | 51.83839 | -1.43164 | 31584 ft | 440 kts | 149° |
| 2026-05-05 17:06 | 51.81275 | -1.40473 | 31946 ft | 438 kts | 149° |
| 2026-05-05 17:06 | 51.78751 | -1.37851 | 32273 ft | 436 kts | 152° |
| 2026-05-05 17:06 | 51.76017 | -1.35652 | 32628 ft | 432 kts | 160° |
| 2026-05-05 17:06 | 51.73179 | -1.34109 | 32952 ft | 430 kts | 164° |
| 2026-05-05 17:07 | 51.70320 | -1.32671 | 33280 ft | 430 kts | 164° |
| 2026-05-05 17:07 | 51.67471 | -1.31232 | 33593 ft | 429 kts | 164° |
| 2026-05-05 17:07 | 51.64627 | -1.29791 | 33905 ft | 428 kts | 164° |
| 2026-05-05 17:07 | 51.61783 | -1.28348 | 34171 ft | 428 kts | 164° |
| 2026-05-05 17:08 | 51.58943 | -1.26909 | 34395 ft | 429 kts | 164° |
| 2026-05-05 17:08 | 51.56135 | -1.25485 | 34589 ft | 429 kts | 164° |
| 2026-05-05 17:08 | 51.53278 | -1.24043 | 34735 ft | 431 kts | 164° |
| 2026-05-05 17:08 | 51.50412 | -1.22598 | 34914 ft | 432 kts | 163° |
| 2026-05-05 17:09 | 51.47607 | -1.20841 | 35117 ft | 434 kts | 156° |
| 2026-05-05 17:09 | 51.44864 | -1.18813 | 35297 ft | 434 kts | 156° |
| 2026-05-05 17:09 | 51.42119 | -1.16787 | 35486 ft | 435 kts | 156° |
| 2026-05-05 17:09 | 51.39369 | -1.14760 | 35660 ft | 435 kts | 156° |
| 2026-05-05 17:10 | 51.36621 | -1.12736 | 35841 ft | 436 kts | 156° |
| 2026-05-05 17:10 | 51.33864 | -1.10712 | 36017 ft | 436 kts | 156° |
| 2026-05-05 17:10 | 51.31104 | -1.08687 | 36158 ft | 437 kts | 156° |
| 2026-05-05 17:10 | 51.28334 | -1.06660 | 36302 ft | 438 kts | 156° |
| 2026-05-05 17:11 | 51.25533 | -1.04616 | 36474 ft | 438 kts | 156° |
| 2026-05-05 17:11 | 51.22795 | -1.02620 | 36639 ft | 438 kts | 156° |
| 2026-05-05 17:11 | 51.19986 | -1.00575 | 36815 ft | 438 kts | 156° |
| 2026-05-05 17:11 | 51.17215 | -0.98560 | 36944 ft | 438 kts | 156° |
| 2026-05-05 17:12 | 51.11667 | -0.94531 | 36934 ft | 438 kts | 156° |
| 2026-05-05 17:12 | 51.06128 | -0.90512 | 36939 ft | 437 kts | 156° |
| 2026-05-05 17:13 | 51.00630 | -0.86538 | 36935 ft | 437 kts | 156° |
| 2026-05-05 17:13 | 50.95052 | -0.82526 | 36933 ft | 437 kts | 156° |
| 2026-05-05 17:14 | 50.89506 | -0.78540 | 36943 ft | 437 kts | 156° |
| 2026-05-05 17:14 | 50.84078 | -0.74209 | 36934 ft | 438 kts | 148° |
| 2026-05-05 17:15 | 50.78986 | -0.69009 | 36935 ft | 439 kts | 148° |
| 2026-05-05 17:15 | 50.73818 | -0.63752 | 36942 ft | 439 kts | 148° |
| 2026-05-05 17:16 | 50.68715 | -0.58581 | 36940 ft | 439 kts | 148° |
| 2026-05-05 17:16 | 50.63577 | -0.53378 | 36939 ft | 439 kts | 148° |
| 2026-05-05 17:17 | 50.58433 | -0.48184 | 36935 ft | 439 kts | 148° |
| 2026-05-05 17:17 | 50.53279 | -0.43004 | 36936 ft | 439 kts | 148° |
| 2026-05-05 17:18 | 50.48124 | -0.37842 | 36934 ft | 440 kts | 148° |
| 2026-05-05 17:18 | 50.42966 | -0.32689 | 36936 ft | 440 kts | 148° |
| 2026-05-05 17:19 | 50.37808 | -0.27535 | 36936 ft | 440 kts | 148° |
| 2026-05-05 17:19 | 50.32647 | -0.22398 | 36936 ft | 439 kts | 148° |
| 2026-05-05 17:20 | 50.27486 | -0.17270 | 36937 ft | 439 kts | 148° |
| 2026-05-05 17:20 | 50.22328 | -0.12149 | 36933 ft | 439 kts | 148° |
| 2026-05-05 17:21 | 50.17164 | -0.07043 | 36938 ft | 439 kts | 148° |
| 2026-05-05 17:22 | 50.09303 | 0.00058 | 36934 ft | 437 kts | 160° |
| 2026-05-05 17:22 | 50.03470 | 0.02565 | 36948 ft | 434 kts | 166° |
| 2026-05-05 17:23 | 49.97627 | 0.04863 | 36939 ft | 433 kts | 166° |
| 2026-05-05 17:23 | 49.91791 | 0.07168 | 36928 ft | 433 kts | 166° |
| 2026-05-05 17:24 | 49.85960 | 0.09465 | 36926 ft | 432 kts | 166° |
| 2026-05-05 17:24 | 49.80141 | 0.11732 | 36941 ft | 431 kts | 166° |
| 2026-05-05 17:25 | 49.74326 | 0.13994 | 36928 ft | 431 kts | 166° |
| 2026-05-05 17:25 | 49.69493 | 0.15878 | 36918 ft | 431 kts | 166° |
| 2026-05-05 17:26 | 49.63680 | 0.18175 | 36923 ft | 431 kts | 165° |
| 2026-05-05 17:26 | 49.57883 | 0.20524 | 36936 ft | 430 kts | 165° |
| 2026-05-05 17:27 | 49.52098 | 0.22866 | 36929 ft | 430 kts | 165° |
| 2026-05-05 17:27 | 49.46294 | 0.25192 | 36886 ft | 431 kts | 165° |
| 2026-05-05 17:28 | 49.40483 | 0.27510 | 36888 ft | 432 kts | 165° |
| 2026-05-05 17:28 | 49.34673 | 0.29830 | 36889 ft | 432 kts | 165° |
| 2026-05-05 17:29 | 49.28857 | 0.32163 | 36892 ft | 432 kts | 165° |
| 2026-05-05 17:29 | 49.23052 | 0.34607 | 36882 ft | 433 kts | 164° |
| 2026-05-05 17:30 | 49.17249 | 0.37098 | 36876 ft | 433 kts | 164° |
| 2026-05-05 17:30 | 49.11437 | 0.39552 | 36878 ft | 433 kts | 164° |
| 2026-05-05 17:31 | 49.05627 | 0.41987 | 36879 ft | 433 kts | 164° |
| 2026-05-05 17:31 | 48.99802 | 0.44417 | 36882 ft | 434 kts | 164° |
| 2026-05-05 17:32 | 48.93980 | 0.46834 | 36874 ft | 434 kts | 164° |
| 2026-05-05 17:32 | 48.88196 | 0.49235 | 36879 ft | 434 kts | 164° |
| 2026-05-05 17:33 | 48.82367 | 0.51652 | 36884 ft | 434 kts | 164° |
| 2026-05-05 17:33 | 48.76542 | 0.54053 | 36881 ft | 434 kts | 165° |
| 2026-05-05 17:34 | 48.70687 | 0.56351 | 36877 ft | 434 kts | 165° |
| 2026-05-05 17:34 | 48.64841 | 0.58604 | 36887 ft | 434 kts | 165° |
| 2026-05-05 17:35 | 48.58993 | 0.60875 | 36883 ft | 434 kts | 165° |
| 2026-05-05 17:35 | 48.53147 | 0.63160 | 36881 ft | 434 kts | 165° |
| 2026-05-05 17:36 | 48.47307 | 0.65484 | 36880 ft | 434 kts | 164° |
| 2026-05-05 17:36 | 48.41483 | 0.67880 | 36883 ft | 434 kts | 164° |
| 2026-05-05 17:37 | 48.35658 | 0.70264 | 36861 ft | 434 kts | 164° |
| 2026-05-05 17:37 | 48.29824 | 0.72619 | 36860 ft | 434 kts | 165° |
| 2026-05-05 17:38 | 48.23989 | 0.74962 | 36866 ft | 434 kts | 165° |
| 2026-05-05 17:38 | 48.18148 | 0.77275 | 36866 ft | 435 kts | 165° |
| 2026-05-05 17:39 | 48.12291 | 0.79567 | 36855 ft | 435 kts | 165° |
| 2026-05-05 17:39 | 48.06425 | 0.81861 | 36858 ft | 436 kts | 165° |
| 2026-05-05 17:40 | 48.00567 | 0.84148 | 36857 ft | 435 kts | 165° |
| 2026-05-05 17:40 | 47.94707 | 0.86436 | 36836 ft | 435 kts | 165° |
| 2026-05-05 17:41 | 47.88839 | 0.88729 | 36851 ft | 436 kts | 165° |
| 2026-05-05 17:41 | 47.82998 | 0.90997 | 36839 ft | 437 kts | 165° |
| 2026-05-05 17:42 | 47.77110 | 0.93284 | 36849 ft | 437 kts | 166° |
| 2026-05-05 17:42 | 47.71214 | 0.95564 | 36848 ft | 438 kts | 166° |
| 2026-05-05 17:43 | 47.65313 | 0.97836 | 36839 ft | 439 kts | 166° |
| 2026-05-05 17:43 | 47.59400 | 1.00113 | 36842 ft | 439 kts | 166° |
| 2026-05-05 17:44 | 47.53487 | 1.02387 | 36846 ft | 439 kts | 166° |
| 2026-05-05 17:44 | 47.47571 | 1.04650 | 36845 ft | 439 kts | 166° |
| 2026-05-05 17:45 | 47.41595 | 1.06356 | 36849 ft | 438 kts | 178° |
| 2026-05-05 17:45 | 47.35515 | 1.06275 | 36856 ft | 437 kts | 181° |
| 2026-05-05 17:46 | 47.29432 | 1.06133 | 36861 ft | 437 kts | 181° |
| 2026-05-05 17:46 | 47.23354 | 1.05986 | 36867 ft | 437 kts | 181° |
| 2026-05-05 17:47 | 47.17275 | 1.05839 | 36862 ft | 437 kts | 181° |
| 2026-05-05 17:47 | 47.11199 | 1.05693 | 36862 ft | 437 kts | 181° |
| 2026-05-05 17:48 | 47.05127 | 1.05555 | 36864 ft | 437 kts | 181° |
| 2026-05-05 17:48 | 46.99048 | 1.05391 | 36870 ft | 436 kts | 182° |
| 2026-05-05 17:49 | 46.92982 | 1.05131 | 36865 ft | 436 kts | 182° |
| 2026-05-05 17:49 | 46.86949 | 1.04840 | 36866 ft | 436 kts | 182° |
| 2026-05-05 17:50 | 46.80879 | 1.04565 | 36863 ft | 437 kts | 182° |
| 2026-05-05 17:50 | 46.74803 | 1.04304 | 36867 ft | 437 kts | 182° |
| 2026-05-05 17:51 | 46.68731 | 1.04056 | 36866 ft | 437 kts | 182° |
| 2026-05-05 17:51 | 46.62653 | 1.03797 | 36873 ft | 437 kts | 182° |
| 2026-05-05 17:52 | 46.56575 | 1.03541 | 36865 ft | 437 kts | 182° |
| 2026-05-05 17:52 | 46.50508 | 1.03751 | 36872 ft | 438 kts | 171° |
| 2026-05-05 17:53 | 46.44560 | 1.05678 | 36883 ft | 438 kts | 168° |
| 2026-05-05 17:53 | 46.38615 | 1.07683 | 36886 ft | 438 kts | 168° |
| 2026-05-05 17:54 | 46.32669 | 1.09663 | 36890 ft | 439 kts | 168° |
| 2026-05-05 17:54 | 46.26722 | 1.11635 | 36893 ft | 439 kts | 168° |
| 2026-05-05 17:55 | 46.20772 | 1.13614 | 36903 ft | 439 kts | 168° |
| 2026-05-05 17:55 | 46.14820 | 1.15593 | 36911 ft | 439 kts | 168° |
| 2026-05-05 17:56 | 46.08866 | 1.17560 | 36921 ft | 439 kts | 168° |
| 2026-05-05 17:56 | 46.02921 | 1.19520 | 36917 ft | 439 kts | 169° |
| 2026-05-05 17:57 | 45.96969 | 1.21474 | 36926 ft | 438 kts | 169° |
| 2026-05-05 17:57 | 45.91020 | 1.23425 | 36923 ft | 438 kts | 169° |
| 2026-05-05 17:58 | 45.85075 | 1.25373 | 36924 ft | 439 kts | 169° |
| 2026-05-05 17:58 | 45.79116 | 1.27325 | 36925 ft | 439 kts | 169° |
| 2026-05-05 17:59 | 45.73161 | 1.29277 | 36924 ft | 439 kts | 169° |
| 2026-05-05 17:59 | 45.67206 | 1.31214 | 36929 ft | 439 kts | 169° |
| 2026-05-05 18:00 | 45.61236 | 1.33147 | 36930 ft | 440 kts | 169° |
| 2026-05-05 18:00 | 45.55272 | 1.35079 | 36927 ft | 440 kts | 169° |
| 2026-05-05 18:01 | 45.49303 | 1.37011 | 36930 ft | 440 kts | 169° |
| 2026-05-05 18:01 | 45.43337 | 1.38944 | 36931 ft | 440 kts | 169° |
| 2026-05-05 18:02 | 45.37369 | 1.40866 | 36932 ft | 440 kts | 169° |
| 2026-05-05 18:02 | 45.31439 | 1.42760 | 36933 ft | 440 kts | 169° |
| 2026-05-05 18:03 | 45.25468 | 1.44680 | 36933 ft | 440 kts | 169° |
| 2026-05-05 18:03 | 45.19464 | 1.46608 | 36933 ft | 440 kts | 169° |
| 2026-05-05 18:04 | 45.13494 | 1.48516 | 36931 ft | 440 kts | 170° |
| 2026-05-05 18:04 | 45.07562 | 1.50400 | 36935 ft | 440 kts | 170° |
| 2026-05-05 18:05 | 45.01586 | 1.52298 | 36935 ft | 440 kts | 170° |
| 2026-05-05 18:05 | 44.95617 | 1.54190 | 36920 ft | 440 kts | 170° |
| 2026-05-05 18:06 | 44.89646 | 1.56081 | 36918 ft | 440 kts | 170° |
| 2026-05-05 18:06 | 44.83673 | 1.57975 | 36926 ft | 440 kts | 170° |
| 2026-05-05 18:07 | 44.77689 | 1.59847 | 36927 ft | 440 kts | 170° |
| 2026-05-05 18:07 | 44.71711 | 1.61720 | 36942 ft | 440 kts | 170° |
| 2026-05-05 18:08 | 44.65730 | 1.63609 | 36948 ft | 441 kts | 170° |
| 2026-05-05 18:08 | 44.59746 | 1.65485 | 36940 ft | 441 kts | 171° |
| 2026-05-05 18:09 | 44.53759 | 1.67355 | 36953 ft | 441 kts | 171° |
| 2026-05-05 18:09 | 44.47772 | 1.69224 | 36960 ft | 441 kts | 171° |
| 2026-05-05 18:10 | 44.41826 | 1.71077 | 36962 ft | 441 kts | 171° |
| 2026-05-05 18:10 | 44.35837 | 1.72931 | 36961 ft | 440 kts | 171° |
| 2026-05-05 18:11 | 44.29862 | 1.74775 | 36966 ft | 440 kts | 171° |
| 2026-05-05 18:11 | 44.23867 | 1.76328 | 36968 ft | 438 kts | 174° |
| 2026-05-05 18:12 | 44.17838 | 1.77557 | 36970 ft | 437 kts | 175° |
| 2026-05-05 18:12 | 44.11818 | 1.78787 | 36970 ft | 437 kts | 175° |
| 2026-05-05 18:13 | 44.05806 | 1.80100 | 36971 ft | 438 kts | 174° |
| 2026-05-05 18:13 | 43.99795 | 1.81446 | 36957 ft | 437 kts | 175° |
| 2026-05-05 18:14 | 43.93790 | 1.82710 | 36974 ft | 435 kts | 177° |
| 2026-05-05 18:14 | 43.88789 | 1.83313 | 36987 ft | 434 kts | 180° |
| 2026-05-05 18:15 | 43.82765 | 1.83739 | 36988 ft | 433 kts | 181° |
| 2026-05-05 18:15 | 43.76742 | 1.84201 | 36988 ft | 433 kts | 180° |
| 2026-05-05 18:16 | 43.69750 | 1.84877 | 37001 ft | 434 kts | 180° |
| 2026-05-05 18:16 | 43.64705 | 1.85394 | 37007 ft | 433 kts | 180° |
| 2026-05-05 18:17 | 43.58733 | 1.85982 | 36996 ft | 433 kts | 180° |
| 2026-05-05 18:17 | 43.52729 | 1.86549 | 37000 ft | 432 kts | 180° |
| 2026-05-05 18:18 | 43.46733 | 1.87116 | 36988 ft | 432 kts | 180° |
| 2026-05-05 18:18 | 43.40738 | 1.87698 | 36974 ft | 432 kts | 180° |
| 2026-05-05 18:19 | 43.34737 | 1.88274 | 36986 ft | 432 kts | 180° |
| 2026-05-05 18:19 | 43.28736 | 1.88854 | 36989 ft | 432 kts | 180° |
| 2026-05-05 18:20 | 43.22739 | 1.89428 | 36993 ft | 432 kts | 180° |
| 2026-05-05 18:20 | 43.16739 | 1.90002 | 36987 ft | 432 kts | 180° |
| 2026-05-05 18:21 | 43.10739 | 1.90570 | 36987 ft | 432 kts | 181° |
| 2026-05-05 18:21 | 43.04744 | 1.91129 | 36991 ft | 432 kts | 181° |
| 2026-05-05 18:22 | 42.98759 | 1.91690 | 36978 ft | 430 kts | 181° |
| 2026-05-05 18:22 | 42.92794 | 1.92261 | 36998 ft | 429 kts | 181° |
| 2026-05-05 18:23 | 42.86843 | 1.92829 | 37006 ft | 429 kts | 181° |
| 2026-05-05 18:23 | 42.80890 | 1.93405 | 37001 ft | 428 kts | 181° |
| 2026-05-05 18:24 | 42.74944 | 1.93962 | 36999 ft | 428 kts | 181° |
| 2026-05-05 18:24 | 42.69018 | 1.95061 | 36993 ft | 437 kts | 168° |
| 2026-05-05 18:25 | 42.63554 | 1.98915 | 36976 ft | 453 kts | 147° |
| 2026-05-05 18:25 | 42.58698 | 2.04408 | 36947 ft | 455 kts | 147° |
| 2026-05-05 18:26 | 42.53828 | 2.09893 | 36950 ft | 455 kts | 147° |
| 2026-05-05 18:26 | 42.48972 | 2.15336 | 36944 ft | 456 kts | 147° |
| 2026-05-05 18:27 | 42.44079 | 2.20803 | 36953 ft | 456 kts | 147° |
| 2026-05-05 18:27 | 42.39181 | 2.26270 | 36935 ft | 456 kts | 147° |
| 2026-05-05 18:28 | 42.31831 | 2.34465 | 36925 ft | 456 kts | 148° |
| 2026-05-05 18:28 | 42.26936 | 2.39908 | 36936 ft | 456 kts | 148° |
| 2026-05-05 18:29 | 42.22042 | 2.45333 | 36925 ft | 456 kts | 148° |
| 2026-05-05 18:29 | 42.17144 | 2.50747 | 36926 ft | 455 kts | 148° |
| 2026-05-05 18:30 | 42.12243 | 2.56158 | 36907 ft | 455 kts | 148° |
| 2026-05-05 18:30 | 42.07350 | 2.61572 | 36912 ft | 456 kts | 148° |
| 2026-05-05 18:31 | 42.02447 | 2.66969 | 36919 ft | 455 kts | 148° |
| 2026-05-05 18:31 | 41.97538 | 2.72356 | 36911 ft | 456 kts | 149° |
| 2026-05-05 18:32 | 41.92618 | 2.77717 | 36887 ft | 454 kts | 150° |
| 2026-05-05 18:32 | 41.87559 | 2.82750 | 36879 ft | 452 kts | 153° |
| 2026-05-05 18:33 | 41.82393 | 2.87532 | 36883 ft | 451 kts | 154° |
| 2026-05-05 18:33 | 41.77234 | 2.92334 | 36884 ft | 452 kts | 153° |
| 2026-05-05 18:34 | 41.72105 | 2.97218 | 36873 ft | 453 kts | 153° |
| 2026-05-05 18:34 | 41.66980 | 3.02124 | 36885 ft | 453 kts | 153° |
| 2026-05-05 18:35 | 41.61839 | 3.07008 | 36869 ft | 453 kts | 153° |
| 2026-05-05 18:35 | 41.56705 | 3.11866 | 36901 ft | 452 kts | 153° |
| 2026-05-05 18:36 | 41.51616 | 3.16672 | 36871 ft | 451 kts | 153° |
| 2026-05-05 18:36 | 41.46450 | 3.21380 | 36890 ft | 447 kts | 156° |
| 2026-05-05 18:37 | 41.41142 | 3.25718 | 35844 ft | 451 kts | 158° |
| 2026-05-05 18:37 | 41.38436 | 3.27856 | 34711 ft | 453 kts | 159° |
| 2026-05-05 18:37 | 41.35726 | 3.30004 | 33642 ft | 453 kts | 159° |
| 2026-05-05 18:38 | 41.33047 | 3.32161 | 32686 ft | 448 kts | 159° |
| 2026-05-05 18:38 | 41.30401 | 3.34326 | 31693 ft | 445 kts | 158° |
| 2026-05-05 18:38 | 41.27779 | 3.36488 | 30790 ft | 441 kts | 158° |
| 2026-05-05 18:38 | 41.25189 | 3.38625 | 29960 ft | 436 kts | 158° |
| 2026-05-05 18:39 | 41.22625 | 3.40736 | 28984 ft | 431 kts | 158° |
| 2026-05-05 18:39 | 41.20089 | 3.42819 | 28089 ft | 425 kts | 158° |
| 2026-05-05 18:39 | 41.17609 | 3.44850 | 27545 ft | 412 kts | 159° |
| 2026-05-05 18:39 | 41.15207 | 3.46814 | 27055 ft | 399 kts | 159° |
| 2026-05-05 18:40 | 41.12882 | 3.48714 | 26586 ft | 386 kts | 159° |
| 2026-05-05 18:40 | 41.10629 | 3.50549 | 26129 ft | 375 kts | 159° |
| 2026-05-05 18:40 | 41.08412 | 3.52341 | 25690 ft | 372 kts | 160° |
| 2026-05-05 18:40 | 41.06212 | 3.54109 | 25254 ft | 368 kts | 160° |
| 2026-05-05 18:41 | 41.04036 | 3.55859 | 24857 ft | 365 kts | 160° |
| 2026-05-05 18:41 | 41.01872 | 3.57600 | 24420 ft | 362 kts | 160° |
| 2026-05-05 18:41 | 40.99727 | 3.59327 | 24012 ft | 360 kts | 160° |
| 2026-05-05 18:41 | 40.97591 | 3.61049 | 23591 ft | 359 kts | 160° |
| 2026-05-05 18:42 | 40.95465 | 3.62763 | 23128 ft | 357 kts | 160° |
| 2026-05-05 18:42 | 40.93360 | 3.64464 | 22697 ft | 353 kts | 159° |
| 2026-05-05 18:42 | 40.91271 | 3.66152 | 22278 ft | 350 kts | 159° |
| 2026-05-05 18:42 | 40.89206 | 3.67821 | 21857 ft | 347 kts | 159° |
| 2026-05-05 18:43 | 40.87155 | 3.69474 | 21441 ft | 344 kts | 159° |
| 2026-05-05 18:43 | 40.85120 | 3.71113 | 21019 ft | 341 kts | 159° |
| 2026-05-05 18:43 | 40.83097 | 3.72737 | 20600 ft | 339 kts | 158° |
| 2026-05-05 18:43 | 40.81083 | 3.74350 | 20178 ft | 338 kts | 158° |
| 2026-05-05 18:44 | 40.79080 | 3.75953 | 19754 ft | 336 kts | 158° |
| 2026-05-05 18:44 | 40.77087 | 3.77551 | 19333 ft | 335 kts | 158° |
| 2026-05-05 18:44 | 40.75100 | 3.79147 | 18920 ft | 334 kts | 157° |
| 2026-05-05 18:44 | 40.73119 | 3.80734 | 18496 ft | 333 kts | 156° |
| 2026-05-05 18:45 | 40.71143 | 3.82318 | 18068 ft | 332 kts | 156° |
| 2026-05-05 18:45 | 40.69176 | 3.83894 | 17632 ft | 330 kts | 156° |
| 2026-05-05 18:45 | 40.67223 | 3.85458 | 17223 ft | 327 kts | 156° |
| 2026-05-05 18:45 | 40.65283 | 3.87011 | 16827 ft | 325 kts | 156° |
| 2026-05-05 18:46 | 40.63357 | 3.88547 | 16426 ft | 323 kts | 156° |
| 2026-05-05 18:46 | 40.61445 | 3.90071 | 16038 ft | 321 kts | 156° |
| 2026-05-05 18:46 | 40.59543 | 3.91587 | 15641 ft | 319 kts | 156° |
| 2026-05-05 18:46 | 40.57653 | 3.93093 | 15257 ft | 317 kts | 155° |
| 2026-05-05 18:47 | 40.55772 | 3.94592 | 14861 ft | 315 kts | 155° |
| 2026-05-05 18:47 | 40.53900 | 3.96083 | 14480 ft | 314 kts | 155° |
| 2026-05-05 18:47 | 40.52033 | 3.97570 | 14088 ft | 313 kts | 155° |
| 2026-05-05 18:47 | 40.50171 | 3.98947 | 13710 ft | 308 kts | 162° |
| 2026-05-05 18:48 | 40.48171 | 3.99838 | 13303 ft | 300 kts | 171° |
| 2026-05-05 18:48 | 40.46161 | 4.00541 | 12921 ft | 298 kts | 170° |
| 2026-05-05 18:48 | 40.44163 | 4.01248 | 12544 ft | 296 kts | 170° |
| 2026-05-05 18:48 | 40.42184 | 4.01953 | 12171 ft | 294 kts | 170° |
| 2026-05-05 18:49 | 40.40219 | 4.02653 | 11771 ft | 292 kts | 170° |
| 2026-05-05 18:49 | 40.38267 | 4.03349 | 11413 ft | 290 kts | 170° |
| 2026-05-05 18:49 | 40.36327 | 4.04041 | 11042 ft | 288 kts | 169° |
| 2026-05-05 18:49 | 40.34395 | 4.04732 | 10649 ft | 287 kts | 169° |
| 2026-05-05 18:50 | 40.32474 | 4.05418 | 10280 ft | 286 kts | 169° |
| 2026-05-05 18:50 | 40.30564 | 4.06096 | 10101 ft | 282 kts | 169° |
| 2026-05-05 18:50 | 40.28663 | 4.06766 | 9998 ft | 283 kts | 169° |
| 2026-05-05 18:50 | 40.26763 | 4.07436 | 9877 ft | 283 kts | 169° |
| 2026-05-05 18:51 | 40.24847 | 4.08106 | 9398 ft | 288 kts | 169° |
| 2026-05-05 18:51 | 40.22924 | 4.08781 | 8975 ft | 286 kts | 169° |
| 2026-05-05 18:51 | 40.21002 | 4.09459 | 8590 ft | 284 kts | 169° |
| 2026-05-05 18:51 | 40.19085 | 4.10138 | 8107 ft | 285 kts | 169° |
| 2026-05-05 18:52 | 40.17185 | 4.10811 | 7771 ft | 282 kts | 169° |
| 2026-05-05 18:52 | 40.15298 | 4.11476 | 7370 ft | 281 kts | 169° |
| 2026-05-05 18:52 | 40.13422 | 4.12137 | 6851 ft | 278 kts | 169° |
| 2026-05-05 18:52 | 40.11558 | 4.12795 | 6286 ft | 277 kts | 169° |
| 2026-05-05 18:53 | 40.09711 | 4.13462 | 5728 ft | 275 kts | 165° |
| 2026-05-05 18:53 | 40.08118 | 4.14827 | 5150 ft | 281 kts | 130° |
| 2026-05-05 18:53 | 40.07358 | 4.17148 | 4647 ft | 283 kts | 95° |
| 2026-05-05 18:53 | 40.07359 | 4.19724 | 4155 ft | 284 kts | 92° |
| 2026-05-05 18:54 | 40.06867 | 4.22168 | 3858 ft | 274 kts | 121° |
| 2026-05-05 18:54 | 40.05696 | 4.23997 | 3776 ft | 256 kts | 146° |
| 2026-05-05 18:54 | 40.04166 | 4.25029 | 3577 ft | 243 kts | 168° |
| 2026-05-05 18:54 | 40.02542 | 4.25219 | 3346 ft | 229 kts | 189° |
| 2026-05-05 18:55 | 40.00985 | 4.24914 | 3047 ft | 224 kts | 193° |
| 2026-05-05 18:55 | 39.99491 | 4.24597 | 2770 ft | 208 kts | 192° |
| 2026-05-05 18:55 | 39.98129 | 4.24315 | 2496 ft | 189 kts | 192° |
| 2026-05-05 18:55 | 39.96911 | 4.24065 | 2272 ft | 165 kts | 193° |
| 2026-05-05 18:56 | 39.95835 | 4.23843 | 2044 ft | 151 kts | 193° |
| 2026-05-05 18:56 | 39.94813 | 4.23630 | 1842 ft | 147 kts | 193° |
| 2026-05-05 18:56 | 39.93812 | 4.23423 | 1662 ft | 144 kts | 192° |
| 2026-05-05 18:56 | 39.92851 | 4.23224 | 1470 ft | 140 kts | 193° |
| 2026-05-05 18:57 | 39.91892 | 4.23027 | 1279 ft | 138 kts | 193° |
| 2026-05-05 18:57 | 39.90929 | 4.22827 | 1089 ft | 141 kts | 194° |
| 2026-05-05 18:57 | 39.89962 | 4.22628 | 901 ft | 139 kts | 192° |
| 2026-05-05 18:57 | 39.89011 | 4.22433 | 704 ft | 138 kts | 192° |
| 2026-05-05 18:58 | 39.88050 | 4.22235 | 543 ft | 141 kts | 191° |
| 2026-05-05 18:58 | 39.87097 | 4.22035 | 349 ft | 137 kts | 191° |
| 2026-05-05 18:58 | 39.86191 | 4.21883 | 465 ft | 132 kts | 186° |
| 2026-05-05 18:58 | 39.85201 | 4.21809 | 1120 ft | 152 kts | 187° |
| 2026-05-05 18:59 | 39.84133 | 4.21690 | 2018 ft | 150 kts | 189° |
| 2026-05-05 18:59 | 39.83078 | 4.21510 | 2420 ft | 162 kts | 193° |
| 2026-05-05 18:59 | 39.81893 | 4.21279 | 2595 ft | 183 kts | 193° |
| 2026-05-05 18:59 | 39.80618 | 4.20811 | 2744 ft | 198 kts | 214° |
| 2026-05-05 19:00 | 39.79716 | 4.19411 | 2870 ft | 213 kts | 250° |
| 2026-05-05 19:00 | 39.79594 | 4.17473 | 2974 ft | 220 kts | 283° |
| 2026-05-05 19:00 | 39.80338 | 4.15746 | 3003 ft | 224 kts | 315° |
| 2026-05-05 19:00 | 39.81727 | 4.14819 | 3008 ft | 231 kts | 348° |
| 2026-05-05 19:01 | 39.83346 | 4.14923 | 3012 ft | 237 kts | 8° |
| 2026-05-05 19:01 | 39.84963 | 4.15405 | 3010 ft | 239 kts | 11° |
| 2026-05-05 19:01 | 39.86571 | 4.15941 | 3007 ft | 238 kts | 11° |
| 2026-05-05 19:01 | 39.88179 | 4.16487 | 3008 ft | 239 kts | 11° |
| 2026-05-05 19:02 | 39.89790 | 4.17036 | 3008 ft | 239 kts | 12° |
| 2026-05-05 19:02 | 39.91412 | 4.17436 | 3006 ft | 236 kts | 4° |
| 2026-05-05 19:02 | 39.93043 | 4.17702 | 3007 ft | 236 kts | 5° |
| 2026-05-05 19:02 | 39.94664 | 4.18051 | 3008 ft | 236 kts | 7° |
| 2026-05-05 19:03 | 39.96279 | 4.18448 | 3009 ft | 237 kts | 8° |
| 2026-05-05 19:03 | 39.97906 | 4.18862 | 3004 ft | 240 kts | 7° |
| 2026-05-05 19:03 | 39.99538 | 4.19288 | 3004 ft | 240 kts | 8° |
| 2026-05-05 19:03 | 40.01173 | 4.19702 | 3003 ft | 238 kts | 7° |
| 2026-05-05 19:04 | 40.02248 | 4.19969 | 3001 ft | 237 kts | 8° |
| 2026-05-05 19:04 | 40.03868 | 4.20355 | 3000 ft | 237 kts | 7° |
| 2026-05-05 19:04 | 40.05492 | 4.20750 | 2999 ft | 237 kts | 7° |
| 2026-05-05 19:04 | 40.07110 | 4.21148 | 2996 ft | 236 kts | 7° |
| 2026-05-05 19:05 | 40.08728 | 4.21545 | 2982 ft | 237 kts | 7° |
| 2026-05-05 19:05 | 40.10351 | 4.21942 | 2982 ft | 237 kts | 7° |
| 2026-05-05 19:05 | 40.11883 | 4.22734 | 2976 ft | 242 kts | 39° |
| 2026-05-05 19:05 | 40.12761 | 4.24584 | 2984 ft | 244 kts | 79° |
| 2026-05-05 19:06 | 40.12571 | 4.26736 | 2983 ft | 242 kts | 121° |
| 2026-05-05 19:06 | 40.11416 | 4.28224 | 2983 ft | 233 kts | 161° |
| 2026-05-05 19:06 | 40.09863 | 4.28383 | 2983 ft | 225 kts | 202° |
| 2026-05-05 19:06 | 40.08584 | 4.27308 | 3018 ft | 213 kts | 223° |
| 2026-05-05 19:07 | 40.07329 | 4.26353 | 2995 ft | 210 kts | 201° |
| 2026-05-05 19:07 | 40.05952 | 4.25940 | 3002 ft | 193 kts | 194° |
| 2026-05-05 19:07 | 40.04702 | 4.25674 | 3014 ft | 177 kts | 193° |
| 2026-05-05 19:07 | 40.03494 | 4.25421 | 3003 ft | 175 kts | 193° |
| 2026-05-05 19:08 | 40.02288 | 4.25171 | 2999 ft | 176 kts | 193° |
| 2026-05-05 19:08 | 40.01076 | 4.24920 | 2955 ft | 177 kts | 194° |
| 2026-05-05 19:08 | 39.99866 | 4.24670 | 2796 ft | 175 kts | 193° |
| 2026-05-05 19:08 | 39.98669 | 4.24423 | 2585 ft | 173 kts | 192° |
| 2026-05-05 19:09 | 39.97475 | 4.24176 | 2367 ft | 174 kts | 193° |
| 2026-05-05 19:09 | 39.96288 | 4.23932 | 2140 ft | 171 kts | 193° |
| 2026-05-05 19:09 | 39.95154 | 4.23700 | 1905 ft | 157 kts | 193° |
| 2026-05-05 19:09 | 39.94112 | 4.23485 | 1705 ft | 148 kts | 193° |
| 2026-05-05 19:10 | 39.93110 | 4.23278 | 1517 ft | 143 kts | 192° |
| 2026-05-05 19:10 | 39.92144 | 4.23079 | 1328 ft | 139 kts | 192° |
| 2026-05-05 19:10 | 39.91190 | 4.22882 | 1127 ft | 138 kts | 193° |
| 2026-05-05 19:10 | 39.90239 | 4.22686 | 952 ft | 140 kts | 194° |
| 2026-05-05 19:11 | 39.89278 | 4.22488 | 766 ft | 139 kts | 191° |
| 2026-05-05 19:11 | 39.88330 | 4.22292 | 569 ft | 135 kts | 190° |
| 2026-05-05 19:11 | 39.87389 | 4.22101 | 390 ft | 136 kts | 191° |